Time;durP1;ratioP1;P1;durP2;ratioP2;P2;SDS_P1;SDS_P2;PMS_P1;PMS_P2;Temp;Humidity;BMP_temperature;BMP_pressure;BME280_temperature;BME280_humidity;BME280_pressure;Samples;Min_cycle;Max_cycle;Signal;HPM_P1;HPM_P2
2023/04/25 00:03:35;;;;;;;2.90;1.10;;;;;;;9.08;92.33;99435.13;218123;1290;139422;-86
2023/04/25 00:08:35;;;;;;;3.40;1.60;;;;;;;8.97;91.61;99429.95;218665;1290;95663;-85
2023/04/25 00:13:35;;;;;;;5.40;1.40;;;;;;;8.85;91.31;99437.70;218134;1290;139433;-87
2023/04/25 00:18:36;;;;;;;2.60;1.40;;;;;;;8.74;91.22;99438.45;218497;1290;138224;-85
2023/04/25 00:23:36;;;;;;;3.90;1.60;;;;;;;8.64;91.03;99435.12;218217;1290;138374;-84
2023/04/25 00:28:37;;;;;;;4.50;1.30;;;;;;;8.57;91.14;99437.06;218681;1290;138469;-85
2023/04/25 00:33:37;;;;;;;2.30;1.40;;;;;;;8.48;91.27;99440.88;218060;1290;139649;-86
2023/04/25 00:38:38;;;;;;;1.90;1.10;;;;;;;8.37;90.66;99447.33;218769;1290;95652;-85
2023/04/25 00:43:39;;;;;;;2.90;1.30;;;;;;;8.31;91.18;99446.36;218185;1290;138036;-86
2023/04/25 00:48:40;;;;;;;3.10;1.40;;;;;;;8.22;90.98;99451.66;218665;1290;138903;-86
2023/04/25 00:53:40;;;;;;;2.50;1.40;;;;;;;8.14;91.27;99456.29;218165;1290;139297;-86
2023/04/25 00:58:42;;;;;;;4.10;1.50;;;;;;;8.08;91.41;99449.35;218685;1290;138354;-86
2023/04/25 01:03:46;;;;;;;3.30;1.70;;;;;;;8.01;91.88;99453.77;218089;1290;139919;-84
2023/04/25 01:08:46;;;;;;;8.80;2.40;;;;;;;7.95;92.05;99453.50;218587;1290;138608;-84
2023/04/25 01:13:47;;;;;;;4.30;1.90;;;;;;;7.90;92.07;99451.29;218217;1290;140986;-84
2023/04/25 01:18:48;;;;;;;3.70;1.60;;;;;;;7.88;92.53;99450.96;218715;1290;139198;-85
2023/04/25 01:23:48;;;;;;;3.70;1.70;;;;;;;7.84;92.54;99448.83;218238;1291;138901;-84
2023/04/25 01:28:49;;;;;;;3.70;1.90;;;;;;;7.79;92.70;99448.81;218599;1290;139406;-85
2023/04/25 01:33:49;;;;;;;5.70;2.10;;;;;;;7.76;92.91;99446.98;218110;1290;138459;-85
2023/04/25 01:38:50;;;;;;;5.70;1.90;;;;;;;7.74;93.00;99454.02;218630;1290;138650;-86
2023/04/25 01:43:50;;;;;;;3.80;2.00;;;;;;;7.70;93.03;99452.19;218264;1290;139467;-86
2023/04/25 01:48:51;;;;;;;4.80;2.00;;;;;;;7.68;92.99;99454.20;218522;1290;139902;-85
2023/04/25 01:53:52;;;;;;;3.90;1.90;;;;;;;7.65;93.41;99453.72;218145;1290;138647;-86
2023/04/25 01:58:53;;;;;;;5.50;2.00;;;;;;;7.64;93.93;99449.71;218671;1290;138664;-87
2023/04/25 02:03:54;;;;;;;5.00;2.40;;;;;;;7.62;94.07;99457.75;217944;1290;138671;-88
2023/04/25 02:08:54;;;;;;;3.50;1.90;;;;;;;7.59;94.63;99452.03;218636;1291;140378;-85
2023/04/25 02:13:55;;;;;;;5.50;2.20;;;;;;;7.59;94.89;99457.73;218475;1290;138146;-87
2023/04/25 02:18:55;;;;;;;3.90;2.10;;;;;;;7.56;95.02;99461.48;218144;1290;138858;-89
2023/04/25 02:23:56;;;;;;;7.00;2.40;;;;;;;7.54;95.47;99460.05;218480;1290;140263;-85
2023/04/25 02:28:57;;;;;;;4.60;2.20;;;;;;;7.52;95.52;99463.94;218203;1290;139166;-86
2023/04/25 02:33:57;;;;;;;5.40;2.20;;;;;;;7.49;95.52;99461.58;218575;1290;138750;-88
2023/04/25 02:38:58;;;;;;;4.60;2.40;;;;;;;7.47;95.67;99465.77;217873;1290;138929;-87
2023/04/25 02:43:58;;;;;;;8.90;2.60;;;;;;;7.44;96.00;99459.81;218685;1289;95741;-88
2023/04/25 02:48:58;;;;;;;7.10;2.80;;;;;;;7.43;96.19;99458.73;218005;1290;139730;-88
2023/04/25 02:53:59;;;;;;;6.50;2.60;;;;;;;7.41;96.04;99459.25;218573;1290;138701;-84
2023/04/25 02:58:59;;;;;;;8.20;2.70;;;;;;;7.39;96.24;99460.47;218102;1290;138802;-88
2023/04/25 03:03:59;;;;;;;5.40;2.60;;;;;;;7.37;96.27;99458.04;218714;1290;139694;-88
2023/04/25 03:09:00;;;;;;;6.90;3.20;;;;;;;7.33;96.47;99453.08;218076;1290;139606;-87
2023/04/25 03:14:00;;;;;;;7.90;3.30;;;;;;;7.30;96.46;99450.86;218797;1294;95632;-88
2023/04/25 03:19:00;;;;;;;9.40;3.90;;;;;;;7.25;96.69;99451.52;218097;1290;138610;-88
2023/04/25 03:24:03;;;;;;;10.50;4.50;;;;;;;7.21;97.01;99450.38;218637;1291;138438;-89
2023/04/25 03:29:03;;;;;;;9.70;4.00;;;;;;;7.16;97.25;99452.06;218095;1290;138754;-89
2023/04/25 03:34:04;;;;;;;11.40;4.20;;;;;;;7.12;97.26;99445.15;218626;1290;138449;-87
2023/04/25 03:39:05;;;;;;;9.80;4.30;;;;;;;7.10;97.66;99441.61;218745;1290;95704;-88
2023/04/25 03:44:06;;;;;;;10.50;3.90;;;;;;;7.07;97.58;99444.01;218688;1290;96122;-86
2023/04/25 03:49:06;;;;;;;8.30;4.30;;;;;;;7.06;97.66;99443.77;218110;1290;138206;-86
2023/04/25 03:54:07;;;;;;;7.50;4.10;;;;;;;7.05;97.89;99449.64;218462;1290;138554;-87
2023/04/25 03:59:07;;;;;;;8.10;4.30;;;;;;;7.04;98.07;99463.53;218100;1290;139038;-89
2023/04/25 04:04:08;;;;;;;10.30;4.20;;;;;;;7.03;98.29;99463.35;218629;1290;138501;-87
2023/04/25 04:09:10;;;;;;;9.60;4.60;;;;;;;7.02;98.76;99462.80;218210;1291;139602;-88
2023/04/25 04:14:11;;;;;;;9.70;4.30;;;;;;;7.03;98.96;99463.91;218702;1290;109336;-87
2023/04/25 04:19:11;;;;;;;9.20;5.10;;;;;;;7.03;99.15;99466.18;217955;1290;242335;-86
2023/04/25 04:24:11;;;;;;;12.60;6.00;;;;;;;7.04;99.37;99467.91;218566;1290;207717;-88
2023/04/25 04:29:20;;;;;;;8.10;4.40;;;;;;;7.09;99.69;99476.86;218113;1290;139680;-87
2023/04/25 04:34:20;;;;;;;10.00;5.20;;;;;;;7.14;99.70;99477.62;218589;1290;138519;-90
2023/04/25 04:39:21;;;;;;;9.30;4.40;;;;;;;7.21;99.90;99482.05;217994;1290;139186;-88
2023/04/25 04:44:22;;;;;;;11.50;5.70;;;;;;;7.28;99.93;99480.72;218796;1290;95765;-84
2023/04/25 04:49:23;;;;;;;9.80;5.40;;;;;;;7.37;100.00;99488.23;218193;1290;138505;-85
2023/04/25 04:54:23;;;;;;;9.00;4.50;;;;;;;7.45;99.86;99487.02;218686;1290;138386;-90
2023/04/25 04:59:23;;;;;;;11.30;4.80;;;;;;;7.55;99.94;99489.70;218136;1290;139122;-89
2023/04/25 05:04:24;;;;;;;10.80;5.10;;;;;;;7.64;99.64;99488.98;218600;1290;138846;-88
2023/04/25 05:09:25;;;;;;;13.40;5.20;;;;;;;7.72;99.51;99485.84;218049;1292;140019;-87
2023/04/25 05:14:25;;;;;;;9.40;4.90;;;;;;;7.84;99.52;99484.05;218734;1291;112199;-89
2023/04/25 05:19:26;;;;;;;12.20;5.40;;;;;;;7.96;99.09;99486.46;218078;1290;139070;-88
2023/04/25 05:24:26;;;;;;;11.50;5.20;;;;;;;8.08;98.85;99494.38;218419;1290;138891;-88
2023/04/25 05:29:27;;;;;;;10.60;5.10;;;;;;;8.23;98.67;99496.60;217897;1291;139675;-90
2023/04/25 05:34:27;;;;;;;11.20;5.40;;;;;;;8.39;97.93;99498.02;218592;1290;138574;-91
2023/04/25 05:39:28;;;;;;;10.00;5.10;;;;;;;8.57;97.50;99498.49;218148;1291;138968;-90
2023/04/25 05:44:29;;;;;;;9.80;4.50;;;;;;;8.77;96.97;99501.94;218648;1291;95820;-85
2023/04/25 05:49:31;;;;;;;10.90;5.10;;;;;;;8.99;96.12;99507.42;218215;1290;138581;-92
2023/04/25 05:54:31;;;;;;;15.10;5.00;;;;;;;9.21;95.80;99504.86;218654;1293;139175;-86
2023/04/25 05:59:31;;;;;;;10.60;4.70;;;;;;;9.41;94.64;99512.20;218141;1291;140209;-86
2023/04/25 06:04:32;;;;;;;10.20;4.90;;;;;;;9.63;94.43;99509.54;218569;1291;138691;-88
2023/04/25 06:09:32;;;;;;;11.50;4.50;;;;;;;9.78;92.86;99512.83;218190;1292;139502;-87
2023/04/25 06:14:36;;;;;;;10.70;5.10;;;;;;;9.88;92.62;99513.45;218583;1291;95763;-92
2023/04/25 06:19:36;;;;;;;11.60;4.30;;;;;;;9.95;90.96;99511.73;217839;1291;138623;-93
2023/04/25 06:24:37;;;;;;;11.60;4.20;;;;;;;9.98;91.27;99512.98;218556;1291;138650;-90
2023/04/25 06:29:37;;;;;;;8.30;3.60;;;;;;;10.14;90.90;99511.10;218238;1290;139799;-90
2023/04/25 06:34:38;;;;;;;12.70;4.70;;;;;;;10.22;90.04;99509.89;218657;1291;138726;-90
2023/04/25 06:39:38;;;;;;;10.80;4.60;;;;;;;10.38;90.04;99509.92;217913;1291;140205;-90
2023/04/25 06:44:38;;;;;;;9.30;4.60;;;;;;;10.55;89.52;99503.98;218766;1291;96147;-92
2023/04/25 06:49:39;;;;;;;10.90;4.80;;;;;;;10.72;88.83;99505.71;218132;1291;139005;-89
2023/04/25 06:54:40;;;;;;;9.30;4.60;;;;;;;10.83;87.96;99499.69;218452;1290;139641;-90
2023/04/25 06:59:40;;;;;;;11.80;4.80;;;;;;;10.96;87.21;99500.48;218121;1290;139977;-92
2023/04/25 07:04:40;;;;;;;10.80;4.80;;;;;;;11.05;86.94;99504.60;218518;1291;139021;-90
2023/04/25 07:09:41;;;;;;;10.70;4.50;;;;;;;11.19;86.70;99502.95;217882;1292;139534;-92
2023/04/25 07:14:41;;;;;;;9.70;4.50;;;;;;;11.40;85.96;99504.45;218784;1290;96037;-87
2023/04/25 07:19:43;;;;;;;8.00;4.10;;;;;;;11.50;85.34;99506.20;218064;1291;139655;-91
2023/04/25 07:24:47;;;;;;;12.20;5.00;;;;;;;11.65;84.99;99509.88;218583;1291;138775;-94
2023/04/25 07:29:47;;;;;;;9.80;4.20;;;;;;;11.88;84.11;99510.56;217969;1291;139084;-88
2023/04/25 07:34:47;;;;;;;10.00;4.10;;;;;;;12.06;82.92;99515.74;218709;1292;139790;-91
2023/04/25 07:39:48;;;;;;;10.70;4.20;;;;;;;12.17;83.21;99516.35;218037;1290;139815;-88
2023/04/25 07:44:48;;;;;;;9.80;4.30;;;;;;;12.40;82.32;99518.71;218665;1291;139435;-89
2023/04/25 07:49:49;;;;;;;13.50;4.40;;;;;;;12.51;80.88;99514.34;218266;1290;139465;-89
2023/04/25 07:54:50;;;;;;;8.90;4.10;;;;;;;12.57;80.74;99515.85;218606;1291;138948;-88
2023/04/25 07:59:50;;;;;;;15.10;4.50;;;;;;;12.71;80.71;99522.06;218085;1290;138974;-88
2023/04/25 08:04:50;;;;;;;13.20;4.60;;;;;;;12.90;79.33;99521.52;218474;1291;138828;-91
2023/04/25 08:09:51;;;;;;;9.50;4.20;;;;;;;12.94;78.34;99518.80;218227;1290;138982;-92
2023/04/25 08:14:51;;;;;;;10.90;4.40;;;;;;;13.02;78.50;99524.86;218697;1291;138709;-88
2023/04/25 08:19:59;;;;;;;8.30;4.20;;;;;;;13.13;77.16;99530.32;218152;1290;139040;-92
2023/04/25 08:25:00;;;;;;;11.90;4.60;;;;;;;13.17;78.40;99529.23;218477;1291;138898;-91
2023/04/25 08:30:02;;;;;;;8.60;3.60;;;;;;;13.34;77.23;99534.67;218021;1290;139277;-89
2023/04/25 08:35:03;;;;;;;10.70;4.40;;;;;;;13.44;77.75;99535.87;218618;1291;138675;-90
2023/04/25 08:40:06;;;;;;;11.90;4.30;;;;;;;13.73;77.75;99542.92;218146;1290;139082;-89
2023/04/25 08:45:08;;;;;;;10.30;4.40;;;;;;;13.95;77.38;99544.23;218420;1290;138964;-88
2023/04/25 08:50:08;;;;;;;11.30;5.00;;;;;;;14.17;77.17;99542.99;218023;1290;140248;-89
2023/04/25 08:55:11;;;;;;;10.60;4.40;;;;;;;14.41;75.63;99547.08;218696;1290;138993;-87
2023/04/25 09:00:13;;;;;;;9.00;5.00;;;;;;;14.66;75.02;99548.32;217974;1290;139014;-88
2023/04/25 09:05:14;;;;;;;9.90;4.60;;;;;;;14.93;74.91;99548.27;218346;1291;138904;-88
2023/04/25 09:10:14;;;;;;;12.00;4.40;;;;;;;15.21;73.18;99552.65;217919;1290;139519;-91
2023/04/25 09:15:15;;;;;;;10.20;3.90;;;;;;;15.28;70.20;99562.80;218800;1290;138689;-89
2023/04/25 09:20:15;;;;;;;8.60;4.90;;;;;;;15.25;70.21;99569.59;218207;1290;138096;-92
2023/04/25 09:25:16;;;;;;;10.40;4.40;;;;;;;15.20;70.30;99575.79;218544;1291;139028;-89
2023/04/25 09:30:17;;;;;;;8.30;4.30;;;;;;;15.38;70.54;99571.46;217846;1290;138932;-90
2023/04/25 09:35:26;;;;;;;7.60;3.70;;;;;;;15.61;70.54;99577.38;218627;1290;138235;-90
2023/04/25 09:40:26;;;;;;;7.30;3.60;;;;;;;15.74;68.84;99578.10;218014;1290;138848;-91
2023/04/25 09:45:31;;;;;;;6.50;3.00;;;;;;;15.81;67.35;99579.00;218640;1290;138171;-93
2023/04/25 09:50:31;;;;;;;6.20;3.20;;;;;;;15.79;67.17;99579.41;218180;1291;138633;-87
2023/04/25 09:55:33;;;;;;;8.90;3.80;;;;;;;15.79;65.96;99577.35;218782;1290;138058;-94
2023/04/25 10:00:35;;;;;;;7.30;4.10;;;;;;;15.64;66.87;99579.69;218187;1290;139052;-89
2023/04/25 10:05:37;;;;;;;9.40;3.50;;;;;;;15.71;67.50;99583.55;218727;1290;138075;-93
2023/04/25 10:10:40;;;;;;;9.60;3.50;;;;;;;15.76;66.94;99584.02;217867;1290;138233;-89
2023/04/25 10:15:41;;;;;;;8.40;3.50;;;;;;;15.81;66.26;99588.41;218648;1290;139112;-91
2023/04/25 10:20:41;;;;;;;10.20;4.10;;;;;;;15.79;66.48;99590.98;218178;1291;138709;-89
2023/04/25 10:25:43;;;;;;;6.50;3.50;;;;;;;15.81;65.45;99587.95;218779;1290;138207;-90
2023/04/25 10:31:07;;;;;;;8.80;3.10;;;;;;;15.70;63.93;99588.34;217998;1290;138635;-91
2023/04/25 10:36:14;;;;;;;9.40;3.60;;;;;;;15.70;63.51;99589.61;218527;1290;139120;-89
2023/04/25 10:41:18;;;;;;;7.70;3.00;;;;;;;15.53;64.30;99589.39;218161;1290;139278;-89
2023/04/25 10:46:23;;;;;;;6.90;3.00;;;;;;;15.54;65.23;99589.35;218613;1290;138502;-88
2023/04/25 10:51:30;;;;;;;5.50;3.10;;;;;;;15.55;64.69;99593.14;218128;1290;138483;-89
2023/04/25 10:56:39;;;;;;;5.90;2.40;;;;;;;15.55;63.47;99590.83;218588;1290;103538;-89
2023/04/25 11:01:41;;;;;;;6.70;2.90;;;;;;;15.42;62.49;99587.23;217893;1291;138701;-88
2023/04/25 11:06:51;;;;;;;5.40;2.80;;;;;;;15.30;62.42;99592.86;218567;1290;138113;-88
2023/04/25 11:11:55;;;;;;;6.50;3.00;;;;;;;15.51;64.86;99587.34;218096;1290;139727;-90
2023/04/25 11:16:57;;;;;;;7.20;3.50;;;;;;;15.77;63.73;99586.11;218698;1290;138151;-91
2023/04/25 11:22:00;;;;;;;5.90;2.80;;;;;;;16.02;63.38;99585.05;218082;1290;138657;-91
2023/04/25 11:27:02;;;;;;;5.40;2.40;;;;;;;16.29;62.37;99588.96;218458;1290;138267;-92
2023/04/25 11:32:03;;;;;;;7.90;2.50;;;;;;;16.27;59.88;99588.70;218373;1290;138546;-90
2023/04/25 11:37:04;;;;;;;8.10;3.10;;;;;;;16.19;61.00;99590.65;218667;1290;138541;-92
2023/04/25 11:42:05;;;;;;;5.80;3.00;;;;;;;16.23;60.23;99592.52;218025;1290;138449;-90
2023/04/25 11:47:06;;;;;;;5.20;2.50;;;;;;;16.23;61.54;99602.53;218511;1290;138154;-90
2023/04/25 11:52:07;;;;;;;7.30;3.10;;;;;;;16.15;60.33;99601.39;218104;1291;139183;-96
2023/04/25 11:57:07;;;;;;;7.80;2.80;;;;;;;15.86;60.40;99600.41;218574;1290;138164;-90
2023/04/25 12:02:08;;;;;;;8.10;3.10;;;;;;;15.75;61.48;99606.54;218362;1290;138047;-92
2023/04/25 12:07:09;;;;;;;7.10;2.90;;;;;;;15.58;62.09;99612.08;218597;1290;137831;-90
2023/04/25 12:12:10;;;;;;;10.60;3.70;;;;;;;15.43;61.98;99613.85;218270;1290;137993;-90
2023/04/25 12:17:11;;;;;;;7.70;2.90;;;;;;;15.23;61.98;99617.95;218508;1290;138305;-89
2023/04/25 12:22:36;;;;;;;6.00;2.50;;;;;;;15.18;61.83;99617.66;218150;1290;138468;-87
2023/04/25 12:27:40;;;;;;;6.20;2.30;;;;;;;15.01;61.58;99620.08;218507;1290;138010;-89
2023/04/25 12:32:45;;;;;;;6.80;2.90;;;;;;;14.94;63.39;99626.94;218151;1290;138060;-90
2023/04/25 12:37:45;;;;;;;4.90;2.50;;;;;;;15.00;63.98;99629.20;218662;1291;137810;-90
2023/04/25 12:42:46;;;;;;;5.90;2.70;;;;;;;15.13;63.84;99632.58;218352;1290;139135;-91
2023/04/25 12:47:46;;;;;;;7.90;3.50;;;;;;;15.21;64.98;99629.06;218462;1290;138443;-90
2023/04/25 12:52:47;;;;;;;6.70;2.30;;;;;;;15.40;63.78;99624.29;218053;1290;139050;-91
2023/04/25 12:57:47;;;;;;;4.40;2.30;;;;;;;15.44;63.52;99621.34;218541;1291;138013;-93
2023/04/25 13:02:47;;;;;;;5.50;2.60;;;;;;;15.55;64.40;99619.66;217995;1290;138451;-91
2023/04/25 13:07:48;;;;;;;4.70;2.10;;;;;;;15.57;63.94;99623.98;218649;1290;95712;-91
2023/04/25 13:12:48;;;;;;;1.30;0.90;;;;;;;15.62;63.35;99626.89;218260;1290;137984;-90
2023/04/25 13:17:49;;;;;;;3.50;1.50;;;;;;;15.57;63.25;99633.66;218776;1290;137062;-90
2023/04/25 13:22:49;;;;;;;2.70;1.30;;;;;;;15.47;63.55;99637.52;218203;1290;138035;-90
2023/04/25 13:27:52;;;;;;;4.50;1.70;;;;;;;15.26;64.43;99641.20;218902;1290;138102;-96
2023/04/25 13:33:06;;;;;;;3.50;2.10;;;;;;;15.11;65.70;99638.87;218185;1290;138693;-94
2023/04/25 13:38:13;;;;;;;6.30;2.20;;;;;;;15.11;65.69;99650.66;218757;1290;95634;-94
2023/04/25 13:43:14;;;;;;;5.00;2.10;;;;;;;14.96;64.98;99649.13;218121;1290;137739;-90
2023/04/25 13:48:18;;;;;;;4.70;2.30;;;;;;;14.86;66.01;99657.33;218675;1290;137883;-95
2023/04/25 13:53:18;;;;;;;5.00;2.50;;;;;;;14.88;65.89;99661.42;218087;1290;138059;-92
2023/04/25 13:58:20;;;;;;;5.00;2.60;;;;;;;14.93;66.56;99653.73;218583;1290;138207;-92
2023/04/25 14:03:20;;;;;;;4.50;2.40;;;;;;;14.92;66.25;99657.77;218010;1290;138076;-92
2023/04/25 14:08:21;;;;;;;4.60;2.30;;;;;;;14.70;66.53;99678.84;218696;1290;95706;-91
2023/04/25 14:13:23;;;;;;;5.00;2.50;;;;;;;14.34;67.12;99686.23;218266;1290;138477;-90
2023/04/25 14:18:28;;;;;;;7.30;2.70;;;;;;;14.14;68.26;99680.83;218677;1290;137863;-93
2023/04/25 14:23:28;;;;;;;4.40;2.00;;;;;;;14.00;68.22;99685.46;217971;1290;138070;-92
2023/04/25 14:28:29;;;;;;;5.30;2.20;;;;;;;14.01;69.36;99683.95;218740;1290;138157;-94
2023/04/25 14:33:31;;;;;;;4.20;2.00;;;;;;;13.98;68.94;99687.32;218099;1290;138171;-91
2023/04/25 14:38:32;;;;;;;7.30;2.40;;;;;;;13.86;69.06;99692.61;218637;1290;95750;-90
2023/04/25 14:43:32;;;;;;;5.30;2.40;;;;;;;13.83;70.19;99695.35;217969;1290;138038;-90
2023/04/25 14:48:33;;;;;;;3.40;1.60;;;;;;;13.91;69.72;99697.61;218610;1290;138223;-88
2023/04/25 14:53:34;;;;;;;4.70;2.10;;;;;;;13.92;69.70;99703.67;218113;1290;138624;-93
2023/04/25 14:58:34;;;;;;;4.10;2.00;;;;;;;13.92;69.34;99705.83;218575;1290;138418;-93
2023/04/25 15:03:42;;;;;;;6.60;2.10;;;;;;;13.90;68.87;99705.60;218070;1290;138451;-93
2023/04/25 15:08:43;;;;;;;11.00;2.40;;;;;;;13.77;67.43;99704.29;218699;1290;107701;-89
2023/04/25 15:13:43;;;;;;;7.70;2.30;;;;;;;13.73;67.65;99707.74;218038;1290;138434;-91
2023/04/25 15:18:44;;;;;;;8.80;3.00;;;;;;;13.67;67.54;99705.05;218584;1290;138140;-93
2023/04/25 15:23:44;;;;;;;8.70;2.60;;;;;;;13.63;67.16;99707.31;218006;1290;138591;-91
2023/04/25 15:28:45;;;;;;;9.80;2.70;;;;;;;13.54;66.91;99712.16;218630;1290;138299;-89
2023/04/25 15:33:45;;;;;;;9.80;2.70;;;;;;;13.53;66.93;99710.29;218191;1290;138273;-90
2023/04/25 15:38:45;;;;;;;13.50;2.60;;;;;;;13.52;67.41;99718.12;218601;1290;95909;-89
2023/04/25 15:43:47;;;;;;;13.00;3.20;;;;;;;13.46;66.00;99723.08;218172;1290;138050;-91
2023/04/25 15:48:48;;;;;;;9.80;2.60;;;;;;;13.29;65.38;99727.92;218442;1290;138261;-89
2023/04/25 15:53:48;;;;;;;13.10;3.10;;;;;;;13.16;64.85;99728.63;218145;1290;138347;-93
2023/04/25 15:58:50;;;;;;;12.00;2.70;;;;;;;13.01;64.41;99731.08;218552;1291;138628;-94
2023/04/25 16:03:52;;;;;;;18.20;4.00;;;;;;;12.86;65.22;99736.23;218310;1290;138440;-94
2023/04/25 16:08:53;;;;;;;12.60;3.20;;;;;;;12.74;65.34;99740.77;218619;1290;138346;-91
2023/04/25 16:13:54;;;;;;;12.80;3.50;;;;;;;12.56;65.68;99742.34;218102;1290;137888;-92
2023/04/25 16:18:56;;;;;;;15.10;3.50;;;;;;;12.51;66.51;99745.85;218163;1290;260532;-91
2023/04/25 16:23:57;;;;;;;16.50;4.00;;;;;;;12.46;65.86;99749.36;218602;1290;138509;-91
2023/04/25 16:29:02;;;;;;;12.60;4.10;;;;;;;12.42;66.13;99753.10;218045;1290;138203;-95
2023/04/25 16:34:07;;;;;;;10.80;3.40;;;;;;;12.33;65.20;99753.15;218685;1290;138404;-94
2023/04/25 16:39:10;;;;;;;13.50;3.20;;;;;;;12.23;64.79;99760.48;218188;1290;138666;-92
2023/04/25 16:44:11;;;;;;;13.10;4.20;;;;;;;12.10;63.77;99766.63;218814;1290;95711;-89
2023/04/25 16:49:12;;;;;;;14.10;4.00;;;;;;;12.01;64.76;99768.71;218204;1290;138260;-90
2023/04/25 16:54:13;;;;;;;15.60;5.20;;;;;;;11.98;64.22;99774.81;218425;1290;138363;-91
2023/04/25 16:59:15;;;;;;;15.20;4.50;;;;;;;11.94;64.74;99780.42;217987;1290;138308;-93
2023/04/25 17:04:16;;;;;;;15.30;3.90;;;;;;;11.87;64.62;99793.13;218669;1290;138411;-91
2023/04/25 17:09:16;;;;;;;17.00;4.30;;;;;;;11.73;64.03;99800.44;218273;1290;138261;-91
2023/04/25 17:14:16;;;;;;;14.20;4.10;;;;;;;11.55;63.68;99806.54;218804;1290;96885;-91
2023/04/25 17:19:17;;;;;;;14.30;3.60;;;;;;;11.44;64.35;99812.08;218016;1290;138900;-91
2023/04/25 17:24:20;;;;;;;14.80;3.70;;;;;;;11.38;64.33;99815.64;218506;1290;138110;-92
2023/04/25 17:29:22;;;;;;;12.00;4.30;;;;;;;11.29;64.58;99818.16;218033;1289;138701;-94
2023/04/25 17:34:23;;;;;;;8.30;3.50;;;;;;;11.11;64.23;99823.21;218552;1290;138304;-91
2023/04/25 17:39:24;;;;;;;16.50;5.40;;;;;;;10.95;64.99;99822.98;217976;1290;138025;-93
2023/04/25 17:44:25;;;;;;;12.70;5.00;;;;;;;10.82;65.39;99824.64;218706;1290;95701;-94
2023/04/25 17:49:25;;;;;;;19.70;6.40;;;;;;;10.69;65.80;99822.66;218137;1290;138504;-91
2023/04/25 17:54:27;;;;;;;15.20;4.20;;;;;;;10.54;66.50;99822.02;218462;1290;138011;-92
2023/04/25 17:59:27;;;;;;;16.10;5.60;;;;;;;10.39;66.99;99833.71;217880;1290;138564;-92
2023/04/25 18:04:28;;;;;;;17.00;5.80;;;;;;;10.21;66.86;99836.88;218607;1290;138379;-92
2023/04/25 18:14:29;;;;;;;20.10;7.00;;;;;;;9.81;67.63;99842.19;218621;1288;96402;-87
2023/04/25 18:19:29;;;;;;;15.10;5.80;;;;;;;9.61;68.41;99846.41;218025;1288;138158;-86
2023/04/25 18:24:30;;;;;;;17.80;5.80;;;;;;;9.41;68.57;99853.35;218485;1288;138515;-85
2023/04/25 18:29:31;;;;;;;13.80;4.90;;;;;;;9.22;69.21;99856.91;218038;1288;138511;-85
2023/04/25 18:34:31;;;;;;;15.20;5.30;;;;;;;9.02;69.67;99864.83;218524;1288;139230;-85
2023/04/25 18:39:32;;;;;;;15.10;5.30;;;;;;;8.83;70.06;99868.20;218026;1288;138139;-85
2023/04/25 18:44:38;;;;;;;16.10;5.30;;;;;;;8.68;70.31;99877.70;218400;1288;95930;-85
2023/04/25 18:49:39;;;;;;;13.80;5.40;;;;;;;8.54;70.88;99884.67;217854;1291;137772;-85
2023/04/25 18:54:39;;;;;;;15.50;5.60;;;;;;;8.38;71.18;99889.77;218462;1289;139001;-83
2023/04/25 18:59:41;;;;;;;19.50;5.90;;;;;;;8.25;71.92;99893.74;217909;1289;138930;-83
2023/04/25 19:04:42;;;;;;;18.50;6.40;;;;;;;8.09;72.51;99891.82;218443;1288;139411;-83
2023/04/25 19:09:42;;;;;;;15.30;6.80;;;;;;;7.91;72.67;99902.30;217815;1288;138605;-84
2023/04/25 19:14:42;;;;;;;15.90;7.80;;;;;;;7.74;73.18;99905.84;218493;1288;96026;-85
2023/04/25 19:19:43;;;;;;;22.50;8.80;;;;;;;7.58;73.55;99915.09;217872;1288;139150;-85
2023/04/25 19:24:43;;;;;;;17.80;7.80;;;;;;;7.42;73.71;99923.19;218312;1291;138828;-85
2023/04/25 19:29:46;;;;;;;18.20;7.00;;;;;;;7.32;73.80;99929.54;217710;1291;139645;-84
2023/04/25 19:34:47;;;;;;;20.90;7.60;;;;;;;7.22;74.33;99942.34;218433;1288;138506;-85
2023/04/25 19:39:47;;;;;;;20.10;7.80;;;;;;;7.13;74.39;99937.98;217868;1288;138724;-85
2023/04/25 19:44:50;;;;;;;18.20;7.10;;;;;;;7.11;74.36;99934.43;218497;1288;96234;-85
2023/04/25 19:49:51;;;;;;;21.60;6.80;;;;;;;7.09;73.90;99938.38;217894;1288;139193;-85
2023/04/25 19:54:52;;;;;;;12.80;5.50;;;;;;;7.08;73.10;99938.84;218410;1288;138624;-85
2023/04/25 19:59:53;;;;;;;17.50;5.50;;;;;;;7.11;73.21;99939.98;217756;1288;138954;-84
2023/04/25 20:04:53;;;;;;;18.30;4.70;;;;;;;7.15;72.65;99941.44;218269;1288;138737;-85
2023/04/25 20:09:53;;;;;;;22.00;5.00;;;;;;;7.19;72.77;99942.30;217923;1289;139893;-84
2023/04/25 20:14:55;;;;;;;13.40;4.90;;;;;;;7.25;72.58;99945.37;218381;1288;138482;-83
2023/04/25 20:19:55;;;;;;;15.90;3.80;;;;;;;7.29;72.08;99948.17;217837;1288;140607;-84
2023/04/25 20:24:56;;;;;;;12.10;3.50;;;;;;;7.32;72.30;99949.63;218457;1288;138441;-85
2023/04/25 20:30:01;;;;;;;13.60;4.10;;;;;;;7.35;72.69;99956.10;217871;1288;139275;-85
2023/04/25 20:35:03;;;;;;;10.90;3.30;;;;;;;7.38;72.15;99956.77;218324;1288;139315;-83
2023/04/25 20:40:08;;;;;;;12.70;4.00;;;;;;;7.40;72.09;99960.95;217602;1290;138695;-85
2023/04/25 20:45:12;;;;;;;15.70;4.10;;;;;;;7.43;72.31;99958.02;217952;1291;139214;-84
2023/04/25 20:50:13;;;;;;;14.00;3.50;;;;;;;7.46;72.01;99959.23;217812;1288;138924;-84
2023/04/25 20:55:13;;;;;;;12.80;3.80;;;;;;;7.48;72.65;99960.60;218276;1288;138715;-83
2023/04/25 21:00:16;;;;;;;10.60;3.50;;;;;;;7.49;72.72;99963.29;217726;1288;139291;-83
2023/04/25 21:05:20;;;;;;;10.00;3.60;;;;;;;7.49;72.79;99963.67;218334;1290;139481;-83
2023/04/25 21:10:21;;;;;;;11.30;3.90;;;;;;;7.49;73.18;99967.50;217660;1291;141093;-82
2023/04/25 21:15:21;;;;;;;8.80;3.40;;;;;;;7.49;73.43;99971.88;218347;1288;139208;-83
2023/04/25 21:20:22;;;;;;;14.00;3.30;;;;;;;7.46;73.65;99976.98;217931;1288;138484;-83
2023/04/25 21:25:28;;;;;;;15.10;3.60;;;;;;;7.42;74.00;99975.38;218434;1288;139144;-83
2023/04/25 21:30:29;;;;;;;11.10;3.20;;;;;;;7.41;74.33;99977.31;217707;1291;138604;-83
2023/04/25 21:35:30;;;;;;;13.70;3.20;;;;;;;7.37;74.46;99979.98;218330;1288;138833;-83
2023/04/25 21:40:30;;;;;;;7.30;2.90;;;;;;;7.34;74.72;99981.41;217756;1293;139805;-83
2023/04/25 21:45:31;;;;;;;11.00;3.30;;;;;;;7.32;74.96;99985.44;218345;1288;138502;-82
2023/04/25 21:50:32;;;;;;;10.50;2.90;;;;;;;7.29;75.65;99988.14;217871;1288;139131;-82
2023/04/25 21:55:32;;;;;;;11.50;3.20;;;;;;;7.27;75.52;99988.49;218346;1289;138247;-82
2023/04/25 22:00:33;;;;;;;8.60;2.60;;;;;;;7.25;75.62;99992.05;217854;1289;139192;-83
2023/04/25 22:05:33;;;;;;;17.20;4.00;;;;;;;7.22;75.43;99994.89;218266;1291;138236;-82
2023/04/25 22:10:34;;;;;;;9.50;3.40;;;;;;;7.18;75.37;99994.90;217771;1288;138593;-82
2023/04/25 22:15:34;;;;;;;12.30;3.20;;;;;;;7.12;76.19;99996.75;218266;1288;138310;-84
2023/04/25 22:20:35;;;;;;;11.90;3.50;;;;;;;7.06;76.47;100001.65;217733;1289;139100;-83
2023/04/25 22:25:36;;;;;;;12.30;3.90;;;;;;;7.02;76.46;100000.95;218358;1292;139434;-83
2023/04/25 22:30:36;;;;;;;12.50;4.30;;;;;;;6.96;77.03;100004.20;217875;1293;139472;-83
2023/04/25 22:35:37;;;;;;;11.10;3.60;;;;;;;6.86;77.28;100004.80;218343;1293;138830;-83
2023/04/25 22:40:37;;;;;;;11.70;3.80;;;;;;;6.76;78.20;100004.14;217780;1288;139749;-82
2023/04/25 22:45:37;;;;;;;11.20;3.60;;;;;;;6.68;78.38;100003.27;218382;1292;138722;-83
2023/04/25 22:50:39;;;;;;;11.40;3.60;;;;;;;6.60;78.66;100004.05;217877;1291;139557;-84
2023/04/25 22:55:40;;;;;;;9.50;3.10;;;;;;;6.55;78.84;100000.03;218194;1288;138728;-83
2023/04/25 23:00:41;;;;;;;11.10;3.60;;;;;;;6.50;78.87;100003.91;217874;1288;138976;-83
2023/04/25 23:05:43;;;;;;;8.90;3.10;;;;;;;6.43;79.08;100004.09;218362;1289;139238;-83
2023/04/25 23:10:43;;;;;;;8.10;2.70;;;;;;;6.36;79.30;100001.20;217772;1293;139046;-82